aviador You're here:

YBMA Decoded Metar

MOUNT ISA in AUSTRALIA
Report Time2017-10-24 02:00:00
UTC Time2017-10-24 02:22:11
Flight Rules vfr VFR
Wind030° at 09 kt
W.Decomp.*RWY 34: 6.4 kt HW 6.4 kt RCW
W.Rank030° ranks 12
Current wind is above 030° avg. (7.5)
Visibility9999 m
Phenomena:N/A
Clouds:N/A
Expected CloudBase > 14,400 ft AGL from Temp-Dew spread
CeilingNone
Temp33°C (ISA +20)
Dew Point-3°C (10% RH)
Heat Index30.6°C
AAT27.4°C
QNH1015 hPa
Density Alt3,435 ft
Elevation1,129 ft
Report Wrong Elevation
Raw Report
METAR YBMA 240200Z AUTO 03009KT 9999 // NCD 33/M03 Q1015=

Extra information for YBMA:More info

Metar Taf Metar & Taf Last 4 Metars F.Rules Stats Wind Profile Meteogram Temp Stats Airport Information Weather charts Add Link Nearby VenuesMetar ALERT Operation Metar Decoded Social comments